createdAt,value
2018-06-27T00:00:05.783Z,24.23
2018-06-27T00:02:34.706Z,24.83
2018-06-27T00:05:03.738Z,23.93
2018-06-27T00:07:32.738Z,24.20
2018-06-27T00:10:01.727Z,23.43
2018-06-27T00:12:30.678Z,23.93
2018-06-27T00:14:59.341Z,22.40
2018-06-27T00:17:28.479Z,23.00
2018-06-27T00:19:57.656Z,23.60
2018-06-27T00:22:26.573Z,23.07
2018-06-27T00:24:55.560Z,24.00
2018-06-27T00:27:24.516Z,23.63
2018-06-27T00:29:53.635Z,24.37
2018-06-27T00:32:22.714Z,23.87
2018-06-27T00:34:51.718Z,24.20
2018-06-27T00:37:20.325Z,23.53
2018-06-27T00:39:49.321Z,23.50
2018-06-27T00:42:18.278Z,22.63
2018-06-27T00:44:47.311Z,23.97
2018-06-27T00:47:16.443Z,24.20
2018-06-27T00:49:45.420Z,24.30
2018-06-27T00:52:14.128Z,23.63
2018-06-27T00:54:43.160Z,24.93
2018-06-27T00:57:12.141Z,23.43
2018-06-27T00:59:41.118Z,23.77
2018-06-27T01:02:10.115Z,24.10
2018-06-27T01:04:39.005Z,25.13
2018-06-27T01:07:07.959Z,25.03
2018-06-27T01:09:36.859Z,23.87
2018-06-27T01:12:05.950Z,23.60
2018-06-27T01:14:35.079Z,23.20
2018-06-27T01:17:04.124Z,24.03
2018-06-27T01:19:33.120Z,24.27
2018-06-27T01:22:02.074Z,24.30
2018-06-27T01:24:30.986Z,22.93
2018-06-27T01:26:59.819Z,23.90
2018-06-27T01:29:28.713Z,24.13
2018-06-27T01:31:57.635Z,23.37
2018-06-27T01:34:26.726Z,23.23
2018-06-27T01:36:55.876Z,23.33
2018-06-27T01:39:24.800Z,23.20
2018-06-27T01:41:53.743Z,24.53
2018-06-27T01:44:22.283Z,24.63
2018-06-27T01:46:51.154Z,25.50
2018-06-27T01:49:20.077Z,24.10
2018-06-27T01:51:49.024Z,23.63
2018-06-27T01:54:17.929Z,23.33
2018-06-27T01:56:46.871Z,25.20
2018-06-27T01:59:15.429Z,23.43
2018-06-27T02:01:44.303Z,23.93
2018-06-27T02:04:13.230Z,23.37
2018-06-27T02:06:42.147Z,24.17
2018-06-27T02:09:11.577Z,23.83
2018-06-27T02:11:40.541Z,22.80
2018-06-27T02:14:09.435Z,22.20
2018-06-27T02:16:44.974Z,23.23
2018-06-27T02:19:18.805Z,22.93
2018-06-27T02:21:55.335Z,23.10
2018-06-27T02:24:29.373Z,23.00
2018-06-27T02:27:06.853Z,23.33
2018-06-27T02:29:42.316Z,23.17
2018-06-27T02:32:17.013Z,23.80
2018-06-27T02:34:51.656Z,24.03
2018-06-27T02:37:24.045Z,23.20
2018-06-27T02:40:00.674Z,24.40
2018-06-27T02:42:41.887Z,23.53
2018-06-27T02:47:54.134Z,22.23
2018-06-27T02:50:28.159Z,23.37
2018-06-27T02:53:07.258Z,23.67
2018-06-27T02:55:40.881Z,22.77
2018-06-27T02:58:16.366Z,24.30
2018-06-27T03:00:52.184Z,25.07
2018-06-27T03:03:25.860Z,25.50
2018-06-27T03:05:58.426Z,23.77
2018-06-27T03:08:36.785Z,24.60
2018-06-27T03:11:13.488Z,22.77
2018-06-27T03:13:53.053Z,26.30
2018-06-27T03:16:27.262Z,24.23
2018-06-27T03:19:00.532Z,25.23
2018-06-27T03:21:38.757Z,24.40
2018-06-27T03:24:17.598Z,22.90
2018-06-27T03:29:33.452Z,23.87
2018-06-27T03:32:05.150Z,25.23
2018-06-27T03:34:40.934Z,24.50
2018-06-27T03:37:15.504Z,25.30
2018-06-27T03:39:49.019Z,25.13
2018-06-27T03:42:25.841Z,25.10
2018-06-27T03:44:58.609Z,23.90
2018-06-27T03:47:32.215Z,24.63
2018-06-27T03:50:08.125Z,24.17
2018-06-27T03:52:49.998Z,25.07
2018-06-27T03:55:27.412Z,24.87
2018-06-27T03:58:06.153Z,23.73
2018-06-27T04:00:40.684Z,24.03
2018-06-27T04:03:15.998Z,23.80
2018-06-27T04:05:53.109Z,24.27
2018-06-27T04:08:21.975Z,24.73
2018-06-27T04:10:50.910Z,26.27
2018-06-27T04:13:21.739Z,25.10
2018-06-27T04:15:50.574Z,25.70
2018-06-27T04:18:19.755Z,25.63
2018-06-27T04:20:48.655Z,25.37
2018-06-27T04:23:17.527Z,24.60
2018-06-27T04:25:46.450Z,25.87
2018-06-27T04:28:15.500Z,27.40
2018-06-27T04:30:44.453Z,26.07
2018-06-27T04:33:13.338Z,26.37
2018-06-27T04:35:42.284Z,25.37
2018-06-27T04:38:11.237Z,24.37
2018-06-27T04:40:40.396Z,26.50
2018-06-27T04:43:09.363Z,25.40
2018-06-27T04:45:37.831Z,26.17
2018-06-27T04:48:06.774Z,26.40
2018-06-27T04:50:35.760Z,25.73
2018-06-27T04:53:04.780Z,25.67
2018-06-27T04:55:34.070Z,25.10
2018-06-27T04:58:03.083Z,24.47
2018-06-27T05:00:32.034Z,26.23
2018-06-27T05:03:00.997Z,27.93
2018-06-27T05:05:30.097Z,26.97
2018-06-27T05:07:58.981Z,28.73
2018-06-27T05:10:28.187Z,28.07
2018-06-27T05:12:57.144Z,26.90
2018-06-27T05:15:26.269Z,30.10
2018-06-27T05:17:55.349Z,28.30
2018-06-27T05:20:24.259Z,29.63
2018-06-27T05:22:53.155Z,29.40
2018-06-27T05:25:22.268Z,27.83
2018-06-27T05:27:51.336Z,30.57
2018-06-27T05:30:20.439Z,27.93
2018-06-27T05:32:49.461Z,27.67
2018-06-27T05:35:18.533Z,30.17
2018-06-27T05:37:47.958Z,27.47
2018-06-27T05:40:17.112Z,28.60
2018-06-27T05:42:45.745Z,28.40
2018-06-27T05:48:03.760Z,27.13
2018-06-27T05:53:19.479Z,28.40
2018-06-27T05:55:53.052Z,27.97
2018-06-27T05:58:23.461Z,27.67
2018-06-27T06:00:57.513Z,28.87
2018-06-27T06:03:32.638Z,28.70
2018-06-27T06:06:05.414Z,27.50
2018-06-27T06:08:42.020Z,28.27
2018-06-27T06:11:13.862Z,29.97
2018-06-27T06:13:46.376Z,28.20
2018-06-27T06:16:18.405Z,27.13
2018-06-27T06:18:51.756Z,28.87
2018-06-27T06:21:25.304Z,28.50
2018-06-27T06:23:57.870Z,28.23
2018-06-27T06:26:39.626Z,27.40
2018-06-27T06:29:12.063Z,27.33
2018-06-27T06:31:45.953Z,26.50
2018-06-27T06:34:19.569Z,30.10
2018-06-27T06:36:51.034Z,27.63
2018-06-27T06:39:23.182Z,28.40
2018-06-27T06:41:57.848Z,28.73
2018-06-27T06:44:31.355Z,28.40
2018-06-27T06:47:02.457Z,27.20
2018-06-27T06:49:34.473Z,27.40
2018-06-27T06:52:04.036Z,26.63
2018-06-27T06:54:33.583Z,25.77
2018-06-27T06:57:02.347Z,26.87
2018-06-27T06:59:31.470Z,25.13
2018-06-27T07:02:00.612Z,25.20
2018-06-27T07:04:30.219Z,25.97
2018-06-27T07:06:59.648Z,26.27
2018-06-27T07:09:30.177Z,23.90
2018-06-27T07:11:59.298Z,26.20
2018-06-27T07:14:28.599Z,25.53
2018-06-27T07:17:01.083Z,24.50
2018-06-27T07:19:38.866Z,25.67
2018-06-27T07:22:14.724Z,23.87
2018-06-27T07:24:51.059Z,23.90
2018-06-27T07:27:24.248Z,22.50
2018-06-27T07:29:56.165Z,23.93
2018-06-27T07:32:25.079Z,23.73
2018-06-27T07:34:54.337Z,23.87
2018-06-27T07:37:23.618Z,23.30
2018-06-27T07:39:53.118Z,22.77
2018-06-27T07:42:24.176Z,24.00
2018-06-27T07:44:53.635Z,23.67
2018-06-27T07:47:22.840Z,23.70
2018-06-27T07:49:52.192Z,21.53
2018-06-27T07:52:21.593Z,22.43
2018-06-27T07:54:51.042Z,21.50
2018-06-27T07:57:25.222Z,22.00
2018-06-27T07:59:56.944Z,22.90
2018-06-27T08:02:33.706Z,20.93
2018-06-27T08:05:07.806Z,21.77
2018-06-27T08:07:37.071Z,23.33
2018-06-27T08:10:06.251Z,22.83
2018-06-27T08:12:35.761Z,23.77
2018-06-27T08:15:05.140Z,23.60
2018-06-27T08:17:34.512Z,22.40
2018-06-27T08:20:03.800Z,22.77
2018-06-27T08:22:33.203Z,24.30
2018-06-27T08:25:02.556Z,22.17
2018-06-27T08:27:31.650Z,22.40
2018-06-27T08:30:00.917Z,20.30
2018-06-27T08:32:30.380Z,21.87
2018-06-27T08:34:59.458Z,20.80
2018-06-27T08:37:31.686Z,20.17
2018-06-27T08:40:00.426Z,21.17
2018-06-27T08:42:29.634Z,19.17
2018-06-27T08:44:58.947Z,20.30
2018-06-27T08:47:41.469Z,18.20
2018-06-27T08:50:11.162Z,18.27
2018-06-27T08:52:39.922Z,17.87
2018-06-27T08:55:09.413Z,18.80
2018-06-27T08:57:38.879Z,17.87
2018-06-27T09:00:08.129Z,16.90
2018-06-27T09:02:38.929Z,16.97
2018-06-27T09:05:08.333Z,15.93
2018-06-27T09:07:37.770Z,14.80
2018-06-27T09:10:07.323Z,15.97
2018-06-27T09:12:36.744Z,14.77
2018-06-27T09:15:06.392Z,15.37
2018-06-27T09:17:35.993Z,13.63
2018-06-27T09:20:05.996Z,13.03
2018-06-27T09:22:36.176Z,11.93
2018-06-27T09:25:05.780Z,11.03
2018-06-27T09:27:40.786Z,10.63
2018-06-27T09:30:16.320Z,10.50
2018-06-27T09:32:45.561Z,11.40
2018-06-27T09:35:14.572Z,10.73
2018-06-27T09:37:47.237Z,12.17
2018-06-27T09:40:19.140Z,12.07
2018-06-27T09:42:49.611Z,12.77
2018-06-27T09:45:19.226Z,12.00
2018-06-27T09:47:51.693Z,9.57
2018-06-27T09:50:21.118Z,10.53
2018-06-27T09:52:54.600Z,11.13
2018-06-27T09:55:33.386Z,10.27
2018-06-27T09:58:16.004Z,9.07
2018-06-27T10:00:56.182Z,7.77
2018-06-27T10:03:30.199Z,7.43
2018-06-27T10:05:59.941Z,9.20
2018-06-27T10:08:38.217Z,9.10
2018-06-27T10:11:15.762Z,8.97
2018-06-27T10:13:52.801Z,8.50
2018-06-27T10:16:28.578Z,9.17
2018-06-27T10:18:57.561Z,8.67
2018-06-27T10:21:35.880Z,9.33
2018-06-27T10:24:10.218Z,9.73
2018-06-27T10:26:51.419Z,9.33
2018-06-27T10:29:26.709Z,8.33
2018-06-27T10:32:00.575Z,8.80
2018-06-27T10:34:33.852Z,8.80
2018-06-27T10:37:09.236Z,8.97
2018-06-27T10:39:43.124Z,8.17
2018-06-27T10:42:15.564Z,7.50
2018-06-27T10:44:44.958Z,7.25
2018-06-27T10:47:19.799Z,7.25
2018-06-27T10:49:54.228Z,6.62
2018-06-27T10:52:39.730Z,6.37
2018-06-27T10:55:23.452Z,6.23
2018-06-27T10:58:04.866Z,5.73
2018-06-27T11:00:45.565Z,5.50
2018-06-27T11:03:23.870Z,4.90
2018-06-27T11:05:54.636Z,5.87
2018-06-27T11:08:24.075Z,5.73
2018-06-27T11:11:01.303Z,5.97
2018-06-27T11:13:40.678Z,6.00
2018-06-27T11:16:13.459Z,5.93
2018-06-27T11:18:51.905Z,5.53
2018-06-27T11:21:29.106Z,5.25
2018-06-27T11:23:58.432Z,5.17
2018-06-27T11:26:30.835Z,5.25
2018-06-27T11:29:03.124Z,5.53
2018-06-27T11:31:36.008Z,5.58
2018-06-27T11:34:07.964Z,4.92
2018-06-27T11:36:49.446Z,5.47
2018-06-27T11:39:30.514Z,4.97
2018-06-27T11:42:03.432Z,5.20
2018-06-27T11:44:57.401Z,5.20
2018-06-27T11:47:41.866Z,4.20
2018-06-27T11:50:20.432Z,3.93
2018-06-27T11:52:50.076Z,3.97
2018-06-27T11:55:31.574Z,3.70
2018-06-27T11:58:06.107Z,4.10
2018-06-27T12:00:38.809Z,4.10
2018-06-27T12:03:08.351Z,4.72
2018-06-27T12:05:40.420Z,4.30
2018-06-27T12:08:11.635Z,4.40
2018-06-27T12:10:41.310Z,4.20
2018-06-27T12:13:10.645Z,3.80
2018-06-27T12:15:40.085Z,4.25
2018-06-27T12:18:10.933Z,4.30
2018-06-27T12:20:40.359Z,3.90
2018-06-27T12:23:09.780Z,3.57
2018-06-27T12:25:39.216Z,4.03
2018-06-27T12:28:10.328Z,3.20
2018-06-27T12:30:44.071Z,3.35
2018-06-27T12:36:48.704Z,2.70
2018-06-27T12:39:18.236Z,2.80
2018-06-27T12:41:47.619Z,2.90
2018-06-27T12:44:52.679Z,2.80
2018-06-27T12:47:33.892Z,2.93
2018-06-27T12:50:03.232Z,3.22
2018-06-27T12:52:32.392Z,3.15
2018-06-27T12:55:02.573Z,3.30
2018-06-27T13:00:13.790Z,2.62
2018-06-27T13:02:43.404Z,2.95
2018-06-27T13:05:12.839Z,3.00
2018-06-27T13:07:50.256Z,2.72
2018-06-27T13:10:20.031Z,2.83
2018-06-27T13:12:49.754Z,3.08
2018-06-27T13:15:19.117Z,3.12
2018-06-27T13:17:48.723Z,2.75
2018-06-27T13:20:22.918Z,2.87
2018-06-27T13:22:52.246Z,3.20
2018-06-27T13:25:21.578Z,3.40
2018-06-27T13:27:50.956Z,3.02
2018-06-27T13:30:31.570Z,2.65
2018-06-27T13:33:01.110Z,2.87
2018-06-27T13:35:30.490Z,2.87
2018-06-27T13:38:01.268Z,3.02
2018-06-27T13:40:37.773Z,3.05
2018-06-27T13:43:11.488Z,3.00
2018-06-27T13:45:56.091Z,2.92
2018-06-27T13:48:32.494Z,2.50
2018-06-27T13:51:06.910Z,2.52
2018-06-27T13:53:41.504Z,3.10
2018-06-27T13:56:11.043Z,2.35
2018-06-27T13:58:40.403Z,2.70
2018-06-27T14:01:09.858Z,2.55
2018-06-27T14:04:13.079Z,3.87
2018-06-27T14:07:12.316Z,2.62
2018-06-27T14:09:48.006Z,2.75
2018-06-27T14:12:17.780Z,2.77
2018-06-27T14:14:47.094Z,3.45
2018-06-27T14:17:21.924Z,2.98
2018-06-27T14:19:53.779Z,3.00
2018-06-27T14:22:24.759Z,3.00
2018-06-27T14:24:54.844Z,3.00
2018-06-27T14:27:24.758Z,3.05
2018-06-27T14:29:54.547Z,2.77
2018-06-27T14:32:23.794Z,3.02
2018-06-27T14:34:53.448Z,3.30
2018-06-27T14:37:23.268Z,3.12
2018-06-27T14:39:52.852Z,3.25
2018-06-27T14:42:22.607Z,3.58
2018-06-27T14:44:52.214Z,4.08
2018-06-27T14:47:21.875Z,3.05
2018-06-27T14:49:51.659Z,3.20
2018-06-27T14:52:21.375Z,3.37
2018-06-27T14:54:51.684Z,3.02
2018-06-27T14:57:21.196Z,3.20
2018-06-27T14:59:50.554Z,3.02
2018-06-27T15:02:19.876Z,2.70
2018-06-27T15:05:08.428Z,3.00
2018-06-27T15:07:43.333Z,2.90
2018-06-27T15:10:12.673Z,2.72
2018-06-27T15:12:42.080Z,2.75
2018-06-27T15:15:12.099Z,2.98
2018-06-27T15:17:42.136Z,3.20
2018-06-27T15:20:11.897Z,3.15
2018-06-27T15:22:41.670Z,2.87
2018-06-27T15:25:12.316Z,3.08
2018-06-27T15:27:42.042Z,2.77
2018-06-27T15:30:12.442Z,2.72
2018-06-27T15:32:43.002Z,2.95
2018-06-27T15:35:12.067Z,3.20
2018-06-27T15:37:43.470Z,3.05
2018-06-27T15:40:14.148Z,2.90
2018-06-27T15:42:43.588Z,2.85
2018-06-27T15:45:13.342Z,3.12
2018-06-27T15:47:42.766Z,3.10
2018-06-27T15:50:12.042Z,3.37
2018-06-27T15:52:41.879Z,3.30
2018-06-27T15:55:11.147Z,3.87
2018-06-27T15:57:40.271Z,3.70
2018-06-27T16:00:09.595Z,3.55
2018-06-27T16:02:38.792Z,3.50
2018-06-27T16:05:08.278Z,3.80
2018-06-27T16:07:36.965Z,3.45
2018-06-27T16:10:06.188Z,3.47
2018-06-27T16:12:36.484Z,3.65
2018-06-27T16:15:05.730Z,3.72
2018-06-27T16:17:38.673Z,3.60
2018-06-27T16:20:08.079Z,3.87
2018-06-27T16:22:37.094Z,4.33
2018-06-27T16:25:06.174Z,3.60
2018-06-27T16:27:35.397Z,3.95
2018-06-27T16:30:05.487Z,4.17
2018-06-27T16:32:34.651Z,3.75
2018-06-27T16:35:03.823Z,3.65
2018-06-27T16:37:32.851Z,3.65
2018-06-27T16:40:14.641Z,4.00
2018-06-27T16:42:50.901Z,3.30
2018-06-27T16:45:27.437Z,3.27
2018-06-27T16:47:56.558Z,3.55
2018-06-27T16:50:25.718Z,3.27
2018-06-27T16:52:54.673Z,3.40
2018-06-27T16:55:23.877Z,3.50
2018-06-27T16:57:52.930Z,3.08
2018-06-27T17:00:44.525Z,2.95
2018-06-27T17:03:14.678Z,2.75
2018-06-27T17:05:43.858Z,3.10
2018-06-27T17:08:12.983Z,3.12
2018-06-27T17:10:42.029Z,3.15
2018-06-27T17:13:11.849Z,2.77
2018-06-27T17:15:41.016Z,2.58
2018-06-27T17:18:09.524Z,3.10
2018-06-27T17:20:38.476Z,2.75
2018-06-27T17:23:16.276Z,3.02
2018-06-27T17:25:49.946Z,3.20
2018-06-27T17:28:18.970Z,3.47
2018-06-27T17:30:47.997Z,3.10
2018-06-27T17:33:16.868Z,3.10
2018-06-27T17:35:45.877Z,3.20
2018-06-27T17:38:14.922Z,3.33
2018-06-27T17:40:43.856Z,3.90
2018-06-27T17:43:12.522Z,3.47
2018-06-27T17:45:41.463Z,3.50
2018-06-27T17:48:10.445Z,3.67
2018-06-27T17:50:39.385Z,3.50
2018-06-27T17:53:08.313Z,3.97
2018-06-27T17:55:36.731Z,3.50
2018-06-27T17:58:05.848Z,3.47
2018-06-27T18:00:35.433Z,3.80
2018-06-27T18:03:04.553Z,3.93
2018-06-27T18:05:33.491Z,3.57
2018-06-27T18:08:02.494Z,3.37
2018-06-27T18:10:31.450Z,3.20
2018-06-27T18:13:00.304Z,2.80
2018-06-27T18:15:29.408Z,3.03
2018-06-27T18:17:58.563Z,3.43
2018-06-27T18:20:27.593Z,2.83
2018-06-27T18:22:56.555Z,3.03
2018-06-27T18:25:25.483Z,2.83
2018-06-27T18:27:54.438Z,3.30
2018-06-27T18:30:23.408Z,3.10
2018-06-27T18:32:52.504Z,2.90
2018-06-27T18:35:21.396Z,3.03
2018-06-27T18:37:50.300Z,3.10
2018-06-27T18:40:19.570Z,2.90
2018-06-27T18:42:48.464Z,2.60
2018-06-27T18:45:16.958Z,2.70
2018-06-27T18:47:45.941Z,2.30
2018-06-27T18:50:14.477Z,2.40
2018-06-27T18:52:43.355Z,2.60
2018-06-27T18:55:12.279Z,2.63
2018-06-27T18:57:41.295Z,3.10
2018-06-27T19:00:11.232Z,2.50
2018-06-27T19:02:40.455Z,2.30
2018-06-27T19:05:09.445Z,2.57
2018-06-27T19:07:38.413Z,2.40
2018-06-27T19:10:07.715Z,2.40
2018-06-27T19:12:36.735Z,2.33
2018-06-27T19:15:06.194Z,2.40
2018-06-27T19:17:35.158Z,2.53
2018-06-27T19:20:04.615Z,2.40
2018-06-27T19:22:33.514Z,2.27
2018-06-27T19:25:02.534Z,2.80
2018-06-27T19:27:31.585Z,2.43
2018-06-27T19:30:00.593Z,2.13
2018-06-27T19:32:29.496Z,2.43
2018-06-27T19:34:58.099Z,2.00
2018-06-27T19:37:27.297Z,2.20
2018-06-27T19:39:56.214Z,2.30
2018-06-27T19:42:25.117Z,2.13
2018-06-27T19:44:54.119Z,2.10
2018-06-27T19:47:22.984Z,2.40
2018-06-27T19:49:51.841Z,2.30
2018-06-27T19:52:20.825Z,2.10
2018-06-27T19:54:49.711Z,1.83
2018-06-27T19:57:19.837Z,2.30
2018-06-27T19:59:48.786Z,2.10
2018-06-27T20:02:17.738Z,2.23
2018-06-27T20:04:46.191Z,2.20
2018-06-27T20:07:15.259Z,3.40
2018-06-27T20:09:43.736Z,1.73
2018-06-27T20:12:12.612Z,2.17
2018-06-27T20:14:41.638Z,2.43
2018-06-27T20:17:10.518Z,2.00
2018-06-27T20:19:39.542Z,2.00
2018-06-27T20:22:08.598Z,2.17
2018-06-27T20:24:37.632Z,2.07
2018-06-27T20:27:06.572Z,2.03
2018-06-27T20:29:35.432Z,2.80
2018-06-27T20:32:04.577Z,2.00
2018-06-27T20:34:33.542Z,1.90
2018-06-27T20:37:03.072Z,2.07
2018-06-27T20:39:32.377Z,2.27
2018-06-27T20:42:01.366Z,2.47
2018-06-27T20:44:30.324Z,2.60
2018-06-27T20:47:05.998Z,2.30
2018-06-27T20:49:36.681Z,2.27
2018-06-27T20:52:05.835Z,2.10
2018-06-27T20:54:35.904Z,2.30
2018-06-27T20:57:05.162Z,2.20
2018-06-27T20:59:34.277Z,2.00
2018-06-27T21:02:09.461Z,2.10
2018-06-27T21:04:39.400Z,2.53
2018-06-27T21:07:08.533Z,2.17
2018-06-27T21:09:37.828Z,2.50
2018-06-27T21:12:07.146Z,2.40
2018-06-27T21:14:36.339Z,2.03
2018-06-27T21:17:05.934Z,2.70
2018-06-27T21:19:35.072Z,2.20
2018-06-27T21:22:04.409Z,2.10
2018-06-27T21:24:33.724Z,2.30
2018-06-27T21:27:02.712Z,2.37
2018-06-27T21:29:33.059Z,2.33
2018-06-27T21:32:03.535Z,1.97
2018-06-27T21:34:33.298Z,2.30
2018-06-27T21:37:03.396Z,2.23
2018-06-27T21:39:32.849Z,2.60
2018-06-27T21:42:02.028Z,2.40
2018-06-27T21:44:31.339Z,2.20
2018-06-27T21:47:01.953Z,2.10
2018-06-27T21:49:32.532Z,2.40
2018-06-27T21:52:01.958Z,2.50
2018-06-27T21:54:31.086Z,2.40
2018-06-27T21:57:00.395Z,2.83
2018-06-27T21:59:30.439Z,3.30
2018-06-27T22:01:59.836Z,2.50
2018-06-27T22:04:30.274Z,2.80
2018-06-27T22:06:59.673Z,2.57
2018-06-27T22:09:28.849Z,2.67
2018-06-27T22:11:59.078Z,2.70
2018-06-27T22:14:28.054Z,2.60
2018-06-27T22:16:57.582Z,2.60
2018-06-27T22:19:26.910Z,2.33
2018-06-27T22:21:56.312Z,2.70
2018-06-27T22:24:26.948Z,2.50
2018-06-27T22:26:56.295Z,2.37
2018-06-27T22:29:25.771Z,2.30
2018-06-27T22:31:54.754Z,2.50
2018-06-27T22:34:24.528Z,2.53
2018-06-27T22:36:53.875Z,2.77
2018-06-27T22:39:23.073Z,2.97
2018-06-27T22:41:52.543Z,2.90
2018-06-27T22:44:21.503Z,2.90
2018-06-27T22:46:50.568Z,3.20
2018-06-27T22:49:19.750Z,2.70
2018-06-27T22:51:48.902Z,3.00
2018-06-27T22:54:18.133Z,3.07
2018-06-27T22:56:47.185Z,3.30
2018-06-27T22:59:17.598Z,3.70
2018-06-27T23:01:47.114Z,3.00
2018-06-27T23:04:16.719Z,2.80
2018-06-27T23:06:45.952Z,3.10
2018-06-27T23:09:21.362Z,3.10
2018-06-27T23:11:50.317Z,2.97
2018-06-27T23:14:19.458Z,3.10
2018-06-27T23:16:49.194Z,2.80
2018-06-27T23:19:18.111Z,2.97
2018-06-27T23:21:50.014Z,2.63
2018-06-27T23:24:18.835Z,2.40
2018-06-27T23:26:48.067Z,3.17
2018-06-27T23:29:17.021Z,2.80
2018-06-27T23:31:46.168Z,2.87
2018-06-27T23:34:15.108Z,2.73
2018-06-27T23:36:44.174Z,3.00
2018-06-27T23:39:14.037Z,3.73
2018-06-27T23:41:43.765Z,3.00
2018-06-27T23:44:12.735Z,3.17
2018-06-27T23:46:41.584Z,2.73
2018-06-27T23:49:10.435Z,3.07
2018-06-27T23:51:39.318Z,3.20
2018-06-27T23:54:08.270Z,3.20
2018-06-27T23:56:37.181Z,2.60
2018-06-27T23:59:06.179Z,2.73
